createdAt,value
2018-07-27T00:00:23.104Z,21.70
2018-07-27T00:02:50.325Z,21.70
2018-07-27T00:05:17.542Z,21.60
2018-07-27T00:07:44.756Z,21.50
2018-07-27T00:10:15.472Z,21.50
2018-07-27T00:12:42.678Z,21.40
2018-07-27T00:15:09.923Z,21.30
2018-07-27T00:20:04.591Z,21.30
2018-07-27T00:22:31.823Z,21.30
2018-07-27T00:24:59.013Z,21.30
2018-07-27T00:27:26.285Z,21.30
2018-07-27T00:29:53.451Z,21.30
2018-07-27T00:32:20.662Z,21.20
2018-07-27T00:34:47.868Z,21.10
2018-07-27T00:37:15.057Z,21.10
2018-07-27T00:39:42.252Z,21.10
2018-07-27T00:42:09.461Z,21.10
2018-07-27T00:44:36.655Z,21.10
2018-07-27T00:47:03.862Z,21.00
2018-07-27T00:49:31.049Z,20.90
2018-07-27T00:51:58.246Z,20.90
2018-07-27T00:54:25.454Z,20.90
2018-07-27T00:56:52.707Z,20.80
2018-07-27T00:59:19.933Z,20.90
2018-07-27T01:01:47.131Z,20.90
2018-07-27T01:06:41.622Z,20.90
2018-07-27T01:09:09.832Z,20.90
2018-07-27T01:11:37.099Z,21.00
2018-07-27T01:16:31.599Z,21.00
2018-07-27T01:18:58.907Z,21.00
2018-07-27T01:21:26.130Z,20.90
2018-07-27T01:23:53.351Z,20.90
2018-07-27T01:26:20.650Z,20.80
2018-07-27T01:28:47.915Z,20.80
2018-07-27T01:31:15.171Z,20.80
2018-07-27T01:33:42.397Z,20.70
2018-07-27T01:36:09.640Z,20.60
2018-07-27T01:38:36.904Z,20.50
2018-07-27T01:41:04.157Z,20.50
2018-07-27T01:43:31.382Z,20.50
2018-07-27T01:45:58.803Z,20.50
2018-07-27T01:48:26.036Z,20.60
2018-07-27T01:50:53.437Z,20.60
2018-07-27T01:53:20.675Z,20.50
2018-07-27T01:55:47.985Z,20.50
2018-07-27T01:58:15.220Z,20.50
2018-07-27T02:00:42.469Z,20.50
2018-07-27T02:03:09.695Z,20.50
2018-07-27T02:05:36.942Z,20.40
2018-07-27T02:08:04.234Z,20.30
2018-07-27T02:10:31.479Z,20.20
2018-07-27T02:12:58.721Z,20.20
2018-07-27T02:15:25.942Z,20.10
2018-07-27T02:17:53.170Z,20.10
2018-07-27T02:20:20.484Z,20.00
2018-07-27T02:22:47.676Z,20.00
2018-07-27T02:25:14.856Z,19.90
2018-07-27T02:27:42.049Z,19.80
2018-07-27T02:30:09.232Z,19.80
2018-07-27T02:32:36.428Z,19.70
2018-07-27T02:35:04.238Z,19.60
2018-07-27T02:37:31.413Z,19.60
2018-07-27T02:39:58.610Z,19.60
2018-07-27T02:42:25.816Z,19.60
2018-07-27T02:44:52.995Z,19.60
2018-07-27T02:47:20.173Z,19.50
2018-07-27T02:49:47.347Z,19.50
2018-07-27T02:52:14.599Z,19.50
2018-07-27T02:54:41.799Z,19.50
2018-07-27T02:59:36.195Z,19.50
2018-07-27T03:02:03.378Z,19.50
2018-07-27T03:04:30.583Z,19.50
2018-07-27T03:06:57.783Z,19.60
2018-07-27T03:09:25.256Z,19.60
2018-07-27T03:11:52.453Z,19.60
2018-07-27T03:14:19.630Z,19.60
2018-07-27T03:16:46.827Z,19.60
2018-07-27T03:19:14.019Z,19.70
2018-07-27T03:21:41.351Z,19.80
2018-07-27T03:24:08.548Z,19.80
2018-07-27T03:26:35.726Z,19.80
2018-07-27T03:29:02.995Z,19.80
2018-07-27T03:31:30.183Z,19.90
2018-07-27T03:33:57.370Z,19.90
2018-07-27T03:36:24.575Z,20.00
2018-07-27T03:38:51.750Z,19.90
2018-07-27T03:41:18.939Z,19.90
2018-07-27T03:43:46.172Z,19.90
2018-07-27T03:46:13.329Z,19.90
2018-07-27T03:48:40.511Z,20.00
2018-07-27T03:51:07.699Z,19.90
2018-07-27T03:53:34.928Z,20.00
2018-07-27T03:56:02.126Z,20.00
2018-07-27T03:58:29.330Z,20.00
2018-07-27T04:00:56.511Z,20.00
2018-07-27T04:03:23.745Z,20.00
2018-07-27T04:05:50.904Z,20.00
2018-07-27T04:08:18.072Z,19.90
2018-07-27T04:10:45.244Z,19.90
2018-07-27T04:13:12.397Z,19.90
2018-07-27T04:15:39.562Z,20.00
2018-07-27T04:18:06.727Z,20.00
2018-07-27T04:20:33.890Z,20.00
2018-07-27T04:23:01.069Z,20.00
2018-07-27T04:25:28.256Z,19.90
2018-07-27T04:27:55.409Z,20.00
2018-07-27T04:30:22.566Z,20.10
2018-07-27T04:32:50.429Z,20.20
2018-07-27T04:35:17.621Z,20.20
2018-07-27T04:37:44.961Z,20.10
2018-07-27T04:40:12.115Z,20.20
2018-07-27T04:42:39.483Z,20.20
2018-07-27T04:45:06.671Z,20.30
2018-07-27T04:50:01.200Z,20.60
2018-07-27T04:52:29.046Z,20.70
2018-07-27T04:54:56.215Z,20.80
2018-07-27T04:57:23.363Z,20.90
2018-07-27T04:59:50.514Z,21.00
2018-07-27T05:02:17.811Z,21.00
2018-07-27T05:04:45.018Z,21.20
2018-07-27T05:07:12.170Z,21.30
2018-07-27T05:12:06.619Z,21.50
2018-07-27T05:14:33.827Z,21.50
2018-07-27T05:17:01.039Z,21.60
2018-07-27T05:19:28.526Z,21.70
2018-07-27T05:21:55.720Z,21.80
2018-07-27T05:24:22.899Z,22.00
2018-07-27T05:26:50.154Z,22.00
2018-07-27T05:29:17.350Z,22.10
2018-07-27T05:31:44.558Z,22.20
2018-07-27T05:34:11.744Z,22.20
2018-07-27T05:36:39.063Z,22.30
2018-07-27T05:39:08.268Z,22.40
2018-07-27T05:41:35.499Z,22.60
2018-07-27T05:44:02.743Z,22.60
2018-07-27T05:46:29.955Z,22.60
2018-07-27T05:48:57.132Z,22.60
2018-07-27T05:51:24.371Z,22.60
2018-07-27T05:53:51.550Z,22.50
2018-07-27T05:56:18.742Z,22.40
2018-07-27T05:58:45.926Z,22.30
2018-07-27T06:01:13.149Z,22.20
2018-07-27T06:03:40.338Z,22.20
2018-07-27T06:06:08.014Z,22.20
2018-07-27T06:08:35.192Z,22.20
2018-07-27T06:11:02.408Z,22.10
2018-07-27T06:13:29.611Z,22.10
2018-07-27T06:15:56.823Z,22.10
2018-07-27T06:18:24.037Z,22.10
2018-07-27T06:20:51.220Z,22.10
2018-07-27T06:23:18.432Z,22.10
2018-07-27T06:25:45.608Z,22.20
2018-07-27T06:28:12.844Z,22.20
2018-07-27T06:30:40.001Z,22.40
2018-07-27T06:33:07.197Z,22.50
2018-07-27T06:35:34.396Z,22.50
2018-07-27T06:38:01.581Z,22.50
2018-07-27T06:40:28.772Z,22.60
2018-07-27T06:42:55.942Z,22.70
2018-07-27T06:45:23.119Z,22.80
2018-07-27T06:47:50.315Z,22.90
2018-07-27T06:50:17.511Z,23.00
2018-07-27T06:52:44.802Z,23.20
2018-07-27T06:55:11.984Z,23.40
2018-07-27T06:57:39.602Z,23.50
2018-07-27T07:00:06.799Z,23.60
2018-07-27T07:02:33.991Z,23.90
2018-07-27T07:05:01.247Z,24.20
2018-07-27T07:07:28.431Z,25.30
2018-07-27T07:12:23.106Z,28.40
2018-07-27T07:14:50.270Z,29.50
2018-07-27T07:17:17.435Z,30.30
2018-07-27T07:19:44.607Z,31.20
2018-07-27T07:22:11.799Z,31.40
2018-07-27T07:24:38.971Z,31.70
2018-07-27T07:27:06.179Z,32.00
2018-07-27T07:29:33.395Z,32.20
2018-07-27T07:32:00.575Z,32.60
2018-07-27T07:34:27.746Z,32.60
2018-07-27T07:36:54.934Z,33.00
2018-07-27T07:39:22.120Z,33.50
2018-07-27T07:41:49.313Z,34.00
2018-07-27T07:44:16.491Z,34.10
2018-07-27T07:46:43.684Z,34.60
2018-07-27T07:49:10.862Z,35.10
2018-07-27T07:51:38.090Z,35.40
2018-07-27T07:54:05.440Z,35.40
2018-07-27T07:59:00.356Z,35.90
2018-07-27T08:01:27.543Z,36.00
2018-07-27T08:03:54.987Z,36.20
2018-07-27T08:06:22.173Z,36.30
2018-07-27T08:11:16.688Z,36.50
2018-07-27T08:13:43.853Z,36.80
2018-07-27T08:16:11.055Z,37.30
2018-07-27T08:18:38.248Z,36.60
2018-07-27T08:21:05.501Z,36.70
2018-07-27T08:23:32.697Z,37.20
2018-07-27T08:27:05.508Z,37.60
2018-07-27T08:29:36.831Z,37.30
2018-07-27T08:32:04.339Z,37.70
2018-07-27T08:34:31.535Z,37.60
2018-07-27T08:36:58.726Z,37.50
2018-07-27T08:39:27.159Z,37.60
2018-07-27T08:44:23.824Z,38.20
2018-07-27T08:46:51.286Z,38.20
2018-07-27T08:49:18.554Z,38.50
2018-07-27T08:51:45.751Z,38.20
2018-07-27T08:54:12.953Z,38.70
2018-07-27T08:56:40.182Z,39.00
2018-07-27T09:01:34.748Z,37.90
2018-07-27T09:04:01.972Z,37.50
2018-07-27T09:06:29.151Z,37.20
2018-07-27T09:08:56.474Z,37.20
2018-07-27T09:11:23.938Z,37.40
2018-07-27T09:13:51.728Z,36.90
2018-07-27T09:16:19.195Z,37.10
2018-07-27T09:18:46.656Z,37.30
2018-07-27T09:21:13.850Z,38.00
2018-07-27T09:23:41.053Z,38.20
2018-07-27T09:26:08.267Z,38.10
2018-07-27T09:28:35.503Z,38.50
2018-07-27T09:31:02.716Z,38.20
2018-07-27T09:33:29.890Z,38.00
2018-07-27T09:35:57.128Z,38.20
2018-07-27T09:38:24.328Z,38.70
2018-07-27T09:40:51.515Z,38.40
2018-07-27T09:43:19.207Z,39.00
2018-07-27T09:45:46.577Z,38.70
2018-07-27T09:48:13.819Z,38.10
2018-07-27T09:50:41.713Z,37.70
2018-07-27T09:53:08.905Z,37.30
2018-07-27T09:55:36.095Z,37.10
2018-07-27T09:58:03.339Z,37.70
2018-07-27T10:00:36.388Z,37.80
2018-07-27T10:03:03.582Z,37.90
2018-07-27T10:07:58.487Z,39.20
2018-07-27T10:10:25.680Z,39.30
2018-07-27T10:12:52.920Z,39.10
2018-07-27T10:15:20.071Z,38.90
2018-07-27T10:17:47.493Z,39.10
2018-07-27T10:20:14.689Z,39.40
2018-07-27T10:22:41.872Z,39.30
2018-07-27T10:25:09.078Z,38.80
2018-07-27T10:27:36.260Z,38.90
2018-07-27T10:30:03.987Z,38.40
2018-07-27T10:32:31.219Z,39.00
2018-07-27T10:34:58.412Z,39.40
2018-07-27T10:37:25.703Z,39.50
2018-07-27T10:39:52.935Z,39.60
2018-07-27T10:42:20.118Z,39.10
2018-07-27T10:44:47.351Z,38.20
2018-07-27T10:47:14.540Z,38.20
2018-07-27T10:49:41.744Z,38.40
2018-07-27T10:52:08.952Z,39.00
2018-07-27T10:54:36.161Z,38.20
2018-07-27T10:57:03.482Z,37.80
2018-07-27T10:59:30.683Z,37.20
2018-07-27T11:01:57.873Z,37.70
2018-07-27T11:04:25.062Z,38.30
2018-07-27T11:06:52.302Z,38.40
2018-07-27T11:09:19.467Z,37.80
2018-07-27T11:11:46.670Z,38.20
2018-07-27T11:14:13.884Z,38.20
2018-07-27T11:16:41.055Z,38.40
2018-07-27T11:19:08.350Z,38.20
2018-07-27T11:21:35.547Z,37.20
2018-07-27T11:24:02.747Z,35.80
2018-07-27T11:26:29.930Z,34.50
2018-07-27T11:28:57.141Z,33.90
2018-07-27T11:31:24.590Z,33.10
2018-07-27T11:33:51.784Z,32.40
2018-07-27T11:36:18.995Z,32.00
2018-07-27T11:38:46.201Z,31.70
2018-07-27T11:41:13.397Z,31.50
2018-07-27T11:43:40.583Z,31.50
2018-07-27T11:46:07.783Z,31.30
2018-07-27T11:48:34.954Z,31.20
2018-07-27T11:51:02.131Z,31.00
2018-07-27T11:53:29.299Z,30.80
2018-07-27T11:55:56.515Z,30.60
2018-07-27T11:58:23.860Z,30.50
2018-07-27T12:00:51.248Z,30.50
2018-07-27T12:03:18.431Z,30.40
2018-07-27T12:05:45.613Z,30.40
2018-07-27T12:08:12.800Z,30.50
2018-07-27T12:10:39.975Z,30.50
2018-07-27T12:13:07.179Z,30.40
2018-07-27T12:15:34.372Z,30.50
2018-07-27T12:18:01.563Z,30.30
2018-07-27T12:20:28.916Z,30.30
2018-07-27T12:25:23.238Z,30.20
2018-07-27T12:27:50.443Z,30.30
2018-07-27T12:30:17.628Z,30.20
2018-07-27T12:32:44.950Z,30.10
2018-07-27T12:35:12.127Z,29.90
2018-07-27T12:37:39.302Z,29.90
2018-07-27T12:40:06.498Z,29.90
2018-07-27T12:42:33.735Z,29.90
2018-07-27T12:45:00.927Z,30.00
2018-07-27T12:47:28.075Z,30.00
2018-07-27T12:49:55.280Z,30.00
2018-07-27T12:52:22.472Z,30.10
2018-07-27T12:54:49.676Z,30.20
2018-07-27T12:57:16.987Z,30.20
2018-07-27T12:59:44.187Z,30.30
2018-07-27T13:02:11.511Z,30.50
2018-07-27T13:04:38.695Z,30.80
2018-07-27T13:07:05.915Z,31.10
2018-07-27T13:09:33.111Z,31.30
2018-07-27T13:12:00.327Z,31.20
2018-07-27T13:14:27.584Z,31.20
2018-07-27T13:16:54.810Z,31.10
2018-07-27T13:19:21.999Z,31.20
2018-07-27T13:21:49.193Z,31.40
2018-07-27T13:24:16.362Z,32.10
2018-07-27T13:26:43.581Z,32.90
2018-07-27T13:29:10.739Z,33.80
2018-07-27T13:34:55.875Z,34.00
2018-07-27T13:37:24.423Z,34.20
2018-07-27T13:39:52.911Z,33.80
2018-07-27T13:42:21.543Z,33.80
2018-07-27T13:44:48.723Z,34.20
2018-07-27T13:47:16.600Z,34.40
2018-07-27T13:49:43.849Z,34.90
2018-07-27T13:52:11.055Z,35.40
2018-07-27T13:54:38.267Z,35.80
2018-07-27T13:57:05.485Z,36.20
2018-07-27T13:59:32.776Z,36.20
2018-07-27T14:02:00.049Z,36.00
2018-07-27T14:04:27.227Z,35.50
2018-07-27T14:09:23.655Z,34.70
2018-07-27T14:11:50.875Z,34.70
2018-07-27T14:14:18.080Z,34.50
2018-07-27T14:16:45.252Z,34.00
2018-07-27T14:19:13.249Z,33.70
2018-07-27T14:21:40.645Z,33.60
2018-07-27T14:24:07.795Z,33.80
2018-07-27T14:26:34.995Z,33.50
2018-07-27T14:29:02.219Z,33.00
2018-07-27T14:31:29.412Z,32.60
2018-07-27T14:33:56.594Z,32.00
2018-07-27T14:36:23.888Z,31.40
2018-07-27T14:38:51.122Z,31.10
2018-07-27T14:41:19.144Z,30.90
2018-07-27T14:43:46.332Z,31.40
2018-07-27T14:46:13.515Z,31.80
2018-07-27T14:48:40.724Z,31.80
2018-07-27T14:51:07.935Z,32.20
2018-07-27T14:53:35.147Z,32.80
2018-07-27T14:56:02.352Z,33.70
2018-07-27T14:58:29.534Z,33.80
2018-07-27T15:00:56.741Z,34.00
2018-07-27T15:03:23.999Z,34.40
2018-07-27T15:05:51.183Z,34.80
2018-07-27T15:08:18.539Z,34.60
2018-07-27T15:10:45.718Z,34.40
2018-07-27T15:13:13.472Z,34.00
2018-07-27T15:15:40.666Z,34.30
2018-07-27T15:18:07.835Z,34.50
2018-07-27T15:20:35.195Z,34.80
2018-07-27T15:23:02.434Z,34.40
2018-07-27T15:25:29.627Z,34.70
2018-07-27T15:27:56.820Z,34.90
2018-07-27T15:30:24.034Z,34.30
2018-07-27T15:35:18.519Z,33.30
2018-07-27T15:37:45.704Z,33.30
2018-07-27T15:40:12.890Z,33.60
2018-07-27T15:42:40.091Z,33.80
2018-07-27T15:45:07.268Z,33.70
2018-07-27T15:47:34.492Z,34.10
2018-07-27T15:50:01.679Z,34.30
2018-07-27T15:52:28.987Z,34.00
2018-07-27T15:54:56.169Z,34.20
2018-07-27T15:57:23.338Z,34.60
2018-07-27T15:59:50.543Z,34.60
2018-07-27T16:02:17.738Z,34.70
2018-07-27T16:04:45.090Z,34.60
2018-07-27T16:07:12.275Z,34.50
2018-07-27T16:09:39.483Z,34.40
2018-07-27T16:12:06.774Z,34.50
2018-07-27T16:14:33.950Z,34.60
2018-07-27T16:17:01.139Z,34.40
2018-07-27T16:19:28.558Z,34.20
2018-07-27T16:21:56.657Z,33.90
2018-07-27T16:24:23.798Z,33.50
2018-07-27T16:26:50.996Z,33.70
2018-07-27T16:29:18.319Z,33.40
2018-07-27T16:31:45.630Z,32.70
2018-07-27T16:34:12.819Z,32.10
2018-07-27T16:39:08.449Z,31.40
2018-07-27T16:41:35.821Z,31.40
2018-07-27T16:44:03.284Z,31.60
2018-07-27T16:46:30.702Z,32.10
2018-07-27T16:51:25.283Z,32.60
2018-07-27T16:53:52.461Z,32.90
2018-07-27T16:56:19.663Z,33.20
2018-07-27T16:58:46.887Z,33.10
2018-07-27T17:01:14.079Z,32.90
2018-07-27T17:03:41.256Z,32.70
2018-07-27T17:06:08.451Z,32.60
2018-07-27T17:08:35.633Z,32.60
2018-07-27T17:11:02.930Z,32.50
2018-07-27T17:13:30.117Z,32.40
2018-07-27T17:15:57.367Z,32.80
2018-07-27T17:18:24.599Z,32.60
2018-07-27T17:20:51.996Z,32.70
2018-07-27T17:23:19.211Z,32.80
2018-07-27T17:25:47.475Z,33.00
2018-07-27T17:28:14.588Z,33.00
2018-07-27T17:30:41.784Z,33.20
2018-07-27T17:33:08.963Z,33.20
2018-07-27T17:35:36.155Z,32.80
2018-07-27T17:38:03.386Z,32.50
2018-07-27T17:40:30.588Z,32.10
2018-07-27T17:42:57.816Z,31.80
2018-07-27T17:45:25.022Z,31.40
2018-07-27T17:47:52.196Z,30.90
2018-07-27T17:50:19.379Z,30.40
2018-07-27T17:52:46.576Z,29.90
2018-07-27T17:55:13.779Z,29.50
2018-07-27T18:00:08.203Z,28.50
2018-07-27T18:02:35.783Z,28.20
2018-07-27T18:07:31.448Z,27.50
2018-07-27T18:09:58.492Z,27.20
2018-07-27T18:12:25.858Z,27.00
2018-07-27T18:14:53.015Z,26.80
2018-07-27T18:17:20.155Z,26.60
2018-07-27T18:19:47.300Z,26.50
2018-07-27T18:22:14.507Z,26.30
2018-07-27T18:24:41.788Z,26.20
2018-07-27T18:27:09.031Z,26.10
2018-07-27T18:29:36.403Z,26.00
2018-07-27T18:32:03.625Z,25.90
2018-07-27T18:34:30.786Z,25.80
2018-07-27T18:36:57.947Z,25.70
2018-07-27T18:39:25.131Z,25.50
2018-07-27T18:41:52.304Z,25.40
2018-07-27T18:44:19.495Z,25.30
2018-07-27T18:46:46.671Z,25.20
2018-07-27T18:49:13.827Z,25.10
2018-07-27T18:51:41.042Z,25.00
2018-07-27T18:54:08.353Z,25.00
2018-07-27T18:56:35.521Z,24.90
2018-07-27T18:59:02.719Z,24.80
2018-07-27T19:01:29.999Z,24.80
2018-07-27T19:03:58.123Z,24.70
2018-07-27T19:13:46.977Z,24.40
2018-07-27T19:16:14.206Z,24.40
2018-07-27T19:18:41.386Z,24.30
2018-07-27T19:21:08.653Z,24.30
2018-07-27T19:23:36.058Z,24.20
2018-07-27T19:30:57.786Z,24.00
2018-07-27T19:33:24.976Z,24.00
2018-07-27T19:35:52.130Z,23.90
2018-07-27T19:38:19.287Z,23.90
2018-07-27T19:40:46.496Z,23.90
2018-07-27T19:43:13.667Z,23.80
2018-07-27T19:45:40.831Z,23.80
2018-07-27T19:48:08.545Z,23.90
2018-07-27T19:50:35.767Z,23.80
2018-07-27T19:53:02.995Z,23.70
2018-07-27T19:57:57.352Z,23.60
2018-07-27T20:00:24.578Z,23.60
2018-07-27T20:02:51.857Z,23.60
2018-07-27T20:05:19.115Z,23.60
2018-07-27T20:07:46.307Z,23.60
2018-07-27T20:10:13.527Z,23.60
2018-07-27T20:12:40.722Z,23.50
2018-07-27T20:15:07.967Z,23.50
2018-07-27T20:17:35.611Z,23.50
2018-07-27T20:20:02.863Z,23.60
2018-07-27T20:22:30.035Z,23.60
2018-07-27T20:24:57.254Z,23.70
2018-07-27T20:27:24.451Z,23.70
2018-07-27T20:29:51.654Z,23.70
2018-07-27T20:32:18.833Z,23.80
2018-07-27T20:34:46.101Z,23.80
2018-07-27T20:39:40.467Z,23.70
2018-07-27T20:42:07.655Z,23.70
2018-07-27T20:44:34.844Z,23.70
2018-07-27T20:51:59.678Z,23.80
2018-07-27T20:54:26.871Z,23.80
2018-07-27T20:56:54.075Z,23.80
2018-07-27T20:59:21.283Z,23.90
2018-07-27T21:01:48.646Z,23.80
2018-07-27T21:04:15.920Z,23.80
2018-07-27T21:06:43.128Z,23.80
2018-07-27T21:09:11.147Z,23.70
2018-07-27T21:11:38.428Z,23.60
2018-07-27T21:14:06.060Z,23.50
2018-07-27T21:16:33.244Z,23.50
2018-07-27T21:19:00.435Z,23.50
2018-07-27T21:21:27.763Z,23.40
2018-07-27T21:23:54.996Z,23.50
2018-07-27T21:26:22.186Z,23.50
2018-07-27T21:28:49.407Z,23.40
2018-07-27T21:31:16.574Z,23.30
2018-07-27T21:33:43.788Z,23.20
2018-07-27T21:36:10.959Z,23.10
2018-07-27T21:38:38.150Z,23.00
2018-07-27T21:41:05.347Z,23.00
2018-07-27T21:43:32.528Z,22.90
2018-07-27T21:45:59.756Z,22.80
2018-07-27T21:48:27.111Z,22.80
2018-07-27T21:53:21.475Z,22.60
2018-07-27T21:55:48.646Z,22.50
2018-07-27T21:58:15.846Z,22.50
2018-07-27T22:00:43.064Z,22.60
2018-07-27T22:03:10.254Z,22.60
2018-07-27T22:05:37.420Z,22.80
2018-07-27T22:08:04.755Z,22.80
2018-07-27T22:10:31.995Z,22.80
2018-07-27T22:12:59.234Z,22.70
2018-07-27T22:15:26.699Z,22.70
2018-07-27T22:17:53.903Z,22.70
2018-07-27T22:20:22.635Z,22.60
2018-07-27T22:22:49.819Z,22.60
2018-07-27T22:25:17.120Z,22.60
2018-07-27T22:27:45.346Z,22.60
2018-07-27T22:30:12.761Z,22.70
2018-07-27T22:32:39.923Z,22.70
2018-07-27T22:37:34.829Z,22.60
2018-07-27T22:40:02.082Z,22.70
2018-07-27T22:42:29.303Z,22.70
2018-07-27T22:44:56.482Z,22.60
2018-07-27T22:47:23.808Z,22.70
2018-07-27T22:49:51.151Z,22.70
2018-07-27T22:52:18.714Z,22.60
2018-07-27T22:54:45.891Z,22.70
2018-07-27T22:57:13.087Z,22.70
2018-07-27T22:59:40.290Z,22.60
2018-07-27T23:02:07.489Z,22.60
2018-07-27T23:04:34.677Z,22.60
2018-07-27T23:07:01.851Z,22.60
2018-07-27T23:09:29.023Z,22.50
2018-07-27T23:11:56.212Z,22.50
2018-07-27T23:14:23.421Z,22.60
2018-07-27T23:16:50.606Z,22.60
2018-07-27T23:19:17.806Z,22.60
2018-07-27T23:21:44.990Z,22.60
2018-07-27T23:24:12.345Z,22.50
2018-07-27T23:26:39.540Z,22.50
2018-07-27T23:31:33.939Z,22.50
2018-07-27T23:34:01.130Z,22.50
2018-07-27T23:36:28.322Z,22.50
2018-07-27T23:38:55.502Z,22.50
2018-07-27T23:41:22.695Z,22.50
2018-07-27T23:43:49.867Z,22.50
2018-07-27T23:46:17.042Z,22.50
2018-07-27T23:48:44.234Z,22.50
2018-07-27T23:51:11.430Z,22.50
2018-07-27T23:53:38.618Z,22.50
2018-07-27T23:56:05.842Z,22.60
2018-07-27T23:58:33.031Z,22.60
